Time;durP1;ratioP1;P1;durP2;ratioP2;P2;SDS_P1;SDS_P2;PMS_P1;PMS_P2;Temp;Humidity;BMP_temperature;BMP_pressure;BME280_temperature;BME280_humidity;BME280_pressure;Samples;Min_cycle;Max_cycle;Signal;HPM_P1;HPM_P2
2022/10/05 00:01:01;;;;;;;;;7.00;7.00;;;;;21.21;46.47;101464.56;5076410;27;45207;-49
2022/10/05 00:03:35;;;;;;;;;6.00;6.00;;;;;21.22;46.48;101470.69;5076263;27;45513;-54
2022/10/05 00:06:01;;;;;;;;;5.75;5.75;;;;;21.21;46.26;101474.25;5074881;28;45572;-49
2022/10/05 00:08:32;;;;;;;;;6.50;6.50;;;;;21.20;46.35;101462.84;5075726;28;45380;-56
2022/10/05 00:10:57;;;;;;;;;7.25;5.00;;;;;21.21;46.21;101463.69;5076071;27;45491;-58
2022/10/05 00:13:26;;;;;;;;;5.00;5.00;;;;;21.20;46.42;101457.56;5076077;27;45613;-49
2022/10/05 00:16:10;;;;;;;;;6.50;6.00;;;;;21.20;46.53;101462.84;5075928;27;45921;-54
2022/10/05 00:18:35;;;;;;;;;4.00;4.00;;;;;21.19;46.60;101463.78;5076460;27;45492;-46
2022/10/05 00:21:02;;;;;;;;;8.25;8.00;;;;;21.20;46.62;101462.84;5074802;28;45324;-49
2022/10/05 00:23:31;;;;;;;;;6.50;6.50;;;;;21.19;46.49;101449.72;5076033;27;45521;-51
2022/10/05 00:26:15;;;;;;;;;4.00;4.00;;;;;21.20;46.30;101448.81;5075879;28;45293;-49
2022/10/05 00:28:40;;;;;;;;;7.00;7.00;;;;;21.20;46.66;101456.72;5075981;27;45361;-47
2022/10/05 00:31:22;;;;;;;;;6.25;6.25;;;;;21.20;46.01;101439.13;5076360;27;45330;-48
2022/10/05 00:33:48;;;;;;;;;8.00;7.00;;;;;21.19;46.61;101437.41;5076140;27;45457;-47
2022/10/05 00:36:14;;;;;;;;;12.00;8.00;;;;;21.19;46.26;101445.31;5075693;27;46163;-47
2022/10/05 00:38:40;;;;;;;;;6.50;6.50;;;;;21.19;46.67;101440.06;5075898;27;45447;-49
2022/10/05 00:41:16;;;;;;;;;8.50;6.00;;;;;21.19;46.61;101440.06;5076193;27;45231;-52
2022/10/05 00:44:00;;;;;;;;;7.75;7.00;;;;;21.19;46.75;101429.50;5076196;27;45440;-51
2022/10/05 00:46:33;;;;;;;;;9.50;8.25;;;;;21.19;46.43;101437.41;5075653;27;46721;-49
2022/10/05 00:49:36;;;;;;;;;7.50;6.75;;;;;21.19;46.24;101426.88;5075621;27;45477;-47
2022/10/05 00:52:39;;;;;;;;;6.50;6.50;;;;;21.18;46.51;101417.25;5075790;27;45426;-47
2022/10/05 00:55:34;;;;;;;;;8.00;8.00;;;;;21.16;46.61;101433.16;5076216;27;45491;-48
2022/10/05 00:58:11;;;;;;;;;7.50;7.00;;;;;21.17;46.62;101426.94;5075537;27;45419;-48
2022/10/05 01:00:53;;;;;;;;;5.00;5.00;;;;;21.16;46.18;101433.16;5076040;27;45296;-52
2022/10/05 01:03:39;;;;;;;;;6.00;6.00;;;;;21.17;46.81;101436.63;5075440;27;45235;-53
2022/10/05 01:06:10;;;;;;;;;6.25;6.25;;;;;21.17;46.47;101426.09;5065142;28;45504;-48
2022/10/05 01:08:54;;;;;;;;;7.75;7.25;;;;;21.17;46.48;101428.72;5075576;27;46342;-49
2022/10/05 01:11:31;;;;;;;;;6.25;6.25;;;;;21.16;46.31;101438.44;5074937;28;45364;-51
2022/10/05 01:14:15;;;;;;;;;6.50;6.50;;;;;21.16;46.37;101434.91;5075483;27;45396;-49
2022/10/05 01:16:59;;;;;;;;;6.50;5.75;;;;;21.16;46.71;101432.28;5075746;27;45267;-48
2022/10/05 01:19:46;;;;;;;;;6.75;6.75;;;;;21.16;46.50;101437.56;5075144;28;48167;-51
2022/10/05 01:22:49;;;;;;;;;8.00;6.00;;;;;21.15;46.45;101431.44;5078591;27;45922;-51
2022/10/05 01:26:06;;;;;;;;;8.75;6.00;;;;;21.14;46.84;101439.41;5078538;27;45357;-47
2022/10/05 01:28:40;;;;;;;;;7.75;6.00;;;;;21.14;46.87;101432.38;5078824;27;45505;-50
2022/10/05 01:31:19;;;;;;;;;5.00;5.00;;;;;21.15;46.78;101430.56;5078897;27;45398;-47
2022/10/05 01:33:57;;;;;;;;;8.75;6.00;;;;;21.14;46.46;101423.59;5078573;27;45358;-47
2022/10/05 01:36:40;;;;;;;;;8.00;7.00;;;;;21.15;46.57;101425.31;5078736;27;45891;-51
2022/10/05 01:39:21;;;;;;;;;6.00;5.75;;;;;21.13;46.79;101414.84;5079134;27;45412;-52
2022/10/05 01:42:05;;;;;;;;;6.50;6.50;;;;;21.14;46.60;101413.03;5076974;27;46683;-51
2022/10/05 01:44:40;;;;;;;;;5.50;5.00;;;;;21.14;46.78;101413.91;5078265;27;45766;-55
2022/10/05 01:47:20;;;;;;;;;7.00;7.00;;;;;21.15;46.63;101417.41;5077453;27;45284;-50
2022/10/05 01:50:06;;;;;;;;;7.50;7.50;;;;;21.14;46.77;101410.41;5078604;27;45467;-56
2022/10/05 01:52:50;;;;;;;;;6.00;5.00;;;;;21.14;46.82;101406.00;5078037;27;45361;-53
2022/10/05 01:55:43;;;;;;;;;7.25;6.25;;;;;21.13;46.77;101399.03;5077970;27;45793;-49
2022/10/05 01:58:37;;;;;;;;;7.25;6.25;;;;;21.14;46.54;101402.50;5078054;27;45341;-53
2022/10/05 02:01:09;;;;;;;;;4.75;4.75;;;;;21.12;46.67;101405.22;5078676;27;45172;-51
2022/10/05 02:03:46;;;;;;;;;6.00;6.00;;;;;21.14;46.56;101399.88;5078339;27;46389;-50
2022/10/05 02:06:36;;;;;;;;;7.25;6.00;;;;;21.13;46.93;101403.44;5077914;27;45815;-52
2022/10/05 02:09:12;;;;;;;;;7.00;7.00;;;;;21.13;46.55;101390.25;5078042;27;45318;-52
2022/10/05 02:11:39;;;;;;;;;2.00;2.00;;;;;21.13;46.61;101395.53;5078414;27;45567;-50
2022/10/05 02:14:14;;;;;;;;;6.25;5.00;;;;;21.12;46.81;101397.31;5078115;27;45454;-47
2022/10/05 02:16:42;;;;;;;;;7.25;6.00;;;;;21.12;46.51;101397.31;5077918;27;45857;-50
2022/10/05 02:19:17;;;;;;;;;5.00;4.75;;;;;21.13;46.72;101392.88;5078129;27;45314;-48
2022/10/05 02:21:47;;;;;;;;;7.25;6.00;;;;;21.12;46.44;101385.91;5078306;27;45354;-55
2022/10/05 02:24:21;;;;;;;;;5.25;5.00;;;;;21.13;46.43;101388.50;5077448;27;46079;-53
2022/10/05 02:26:48;;;;;;;;;6.25;5.75;;;;;21.13;46.77;101384.97;5077803;27;45860;-54
2022/10/05 02:29:17;;;;;;;;;6.00;5.00;;;;;21.12;46.28;101380.63;5077588;27;45481;-55
2022/10/05 02:31:56;;;;;;;;;7.00;6.00;;;;;21.11;46.48;101371.88;5076840;28;45517;-52
2022/10/05 02:34:22;;;;;;;;;5.25;5.25;;;;;21.12;46.32;101367.44;5075817;28;47508;-53
2022/10/05 02:37:11;;;;;;;;;6.00;5.00;;;;;21.11;46.57;101363.13;5075825;27;45967;-49
2022/10/05 02:39:55;;;;;;;;;5.00;5.00;;;;;21.12;46.72;101356.91;5077850;27;45376;-54
2022/10/05 02:42:35;;;;;;;;;6.50;6.00;;;;;21.11;46.49;101358.72;5077366;27;45449;-53
2022/10/05 02:45:21;;;;;;;;;7.00;5.25;;;;;21.10;46.53;101359.63;5077425;27;45449;-51
2022/10/05 02:48:08;;;;;;;;;6.00;6.00;;;;;21.11;46.71;101357.88;5076072;27;45382;-54
2022/10/05 02:50:46;;;;;;;;;6.75;6.00;;;;;21.09;46.69;101351.81;5077903;28;45455;-52
2022/10/05 02:53:25;;;;;;;;;6.25;5.00;;;;;21.11;46.58;101349.97;5077427;27;45357;-56
2022/10/05 02:56:16;;;;;;;;;4.00;4.00;;;;;21.11;46.60;101349.97;5077405;27;46356;-54
2022/10/05 02:58:49;;;;;;;;;5.25;4.75;;;;;21.10;46.38;101351.72;5077175;27;45373;-56
2022/10/05 03:01:38;;;;;;;;;5.00;4.50;;;;;21.09;46.75;101349.19;5077226;28;45396;-53
2022/10/05 03:04:18;;;;;;;;;5.25;5.00;;;;;21.11;46.41;101347.31;5077723;27;45253;-55
2022/10/05 03:06:54;;;;;;;;;4.50;4.50;;;;;21.09;46.48;101349.19;5077021;27;45686;-51
2022/10/05 03:09:26;;;;;;;;;5.50;5.50;;;;;21.08;46.62;101350.94;5076994;27;45374;-51
2022/10/05 03:12:10;;;;;;;;;5.75;4.00;;;;;21.10;46.52;101356.16;5076879;27;45350;-53
2022/10/05 03:14:54;;;;;;;;;4.25;3.25;;;;;21.10;46.34;101350.88;5077658;28;45414;-56
2022/10/05 03:17:33;;;;;;;;;5.00;4.75;;;;;21.09;46.63;101350.03;5076530;27;45736;-51
2022/10/05 03:20:30;;;;;;;;;7.00;5.00;;;;;21.09;46.59;101352.66;5076990;27;45480;-55
2022/10/05 03:23:00;;;;;;;;;4.50;3.75;;;;;21.09;46.65;101350.03;5076979;27;45381;-53
2022/10/05 03:25:49;;;;;;;;;5.25;4.50;;;;;21.09;46.66;101339.47;5075493;28;45466;-54
2022/10/05 03:28:39;;;;;;;;;5.25;5.25;;;;;21.08;46.48;101337.75;5076437;27;46393;-53
2022/10/05 03:31:21;;;;;;;;;5.50;4.25;;;;;21.08;46.23;101336.94;5075801;27;45821;-49
2022/10/05 03:33:55;;;;;;;;;4.25;4.25;;;;;21.08;46.58;101329.03;5076762;27;45306;-53
2022/10/05 03:36:31;;;;;;;;;4.00;3.75;;;;;21.07;46.47;101330.78;5076711;27;45279;-51
2022/10/05 03:39:10;;;;;;;;;5.00;4.50;;;;;21.08;46.70;101329.03;5076530;27;46966;-52
2022/10/05 03:41:47;;;;;;;;;5.00;4.50;;;;;21.08;46.57;101323.75;5076502;27;45424;-50
2022/10/05 03:44:18;;;;;;;;;3.50;3.50;;;;;21.07;46.53;101325.50;5076522;27;45797;-48
2022/10/05 03:46:50;;;;;;;;;4.00;4.00;;;;;21.06;46.61;101323.81;5076879;27;45177;-49
2022/10/05 03:49:48;;;;;;;;;4.25;4.00;;;;;21.06;46.45;101321.16;5074639;28;45487;-50
2022/10/05 03:52:24;;;;;;;;;5.00;4.00;;;;;21.07;46.75;101322.03;5074745;28;45287;-50
2022/10/05 03:55:20;;;;;;;;;4.50;4.50;;;;;21.07;46.47;101314.13;5076491;27;45481;-49
2022/10/05 03:57:47;;;;;;;;;5.50;5.00;;;;;21.05;46.63;101316.00;5076579;27;45431;-49
2022/10/05 04:00:22;;;;;;;;;5.00;4.00;;;;;21.06;46.29;101315.06;5076029;27;46451;-50
2022/10/05 04:03:20;;;;;;;;;5.00;4.25;;;;;21.07;46.78;101316.78;5076113;27;45321;-49
2022/10/05 04:05:53;;;;;;;;;4.00;4.00;;;;;21.06;46.48;101318.53;5075138;27;45333;-49
2022/10/05 04:08:34;;;;;;;;;4.50;4.00;;;;;21.06;46.69;101320.34;5076427;27;45344;-50
2022/10/05 04:11:06;;;;;;;;;4.25;3.75;;;;;21.05;46.28;101322.13;5076035;27;45542;-50
2022/10/05 04:13:45;;;;;;;;;5.00;5.00;;;;;21.05;46.45;101319.50;5075789;27;45335;-54
2022/10/05 04:16:21;;;;;;;;;5.75;3.75;;;;;21.06;46.47;101317.69;5075912;28;45339;-53
2022/10/05 04:18:53;;;;;;;;;4.00;4.00;;;;;21.04;46.24;101315.16;5076388;27;45283;-51
2022/10/05 04:21:24;;;;;;;;;5.00;3.75;;;;;21.05;46.38;101316.00;5091546;27;48493;-54
2022/10/05 04:23:59;;;;;;;;;4.00;4.00;;;;;21.05;46.53;101310.72;5076176;28;45858;-49
2022/10/05 04:26:42;;;;;;;;;5.00;3.00;;;;;21.05;46.48;101305.44;5075810;27;45398;-51
2022/10/05 04:29:28;;;;;;;;;3.00;3.00;;;;;21.04;46.16;101307.25;5075323;28;45586;-48
2022/10/05 04:32:08;;;;;;;;;4.50;4.00;;;;;21.05;46.38;101308.09;5075842;27;46178;-56
2022/10/05 04:35:02;;;;;;;;;4.25;3.75;;;;;21.03;46.36;101310.81;5076195;27;45180;-57
2022/10/05 04:37:43;;;;;;;;;5.50;5.25;;;;;21.04;46.38;101307.25;5075836;27;45319;-56
2022/10/05 04:40:23;;;;;;;;;4.00;4.00;;;;;21.04;46.56;101309.00;5075791;27;45425;-55
2022/10/05 04:43:22;;;;;;;;;3.00;3.00;;;;;21.04;46.46;101301.09;5075586;27;45571;-56
2022/10/05 04:46:01;;;;;;;;;4.00;4.00;;;;;21.04;46.32;101303.75;5075134;28;45322;-56
2022/10/05 04:49:06;;;;;;;;;4.75;4.75;;;;;21.03;46.34;101302.03;5075716;27;45362;-57
2022/10/05 04:51:47;;;;;;;;;6.25;4.00;;;;;21.01;46.44;101302.13;5066661;27;45441;-56
2022/10/05 04:54:30;;;;;;;;;1.75;1.75;;;;;21.01;46.68;101300.31;5076794;27;45852;-55
2022/10/05 04:57:00;;;;;;;;;4.25;3.50;;;;;21.01;46.34;101297.69;5079083;27;45497;-56
2022/10/05 04:59:54;;;;;;;;;4.00;4.00;;;;;21.03;46.36;101294.13;5078993;27;45262;-53
2022/10/05 05:02:44;;;;;;;;;3.75;3.25;;;;;21.01;46.72;101289.78;5078999;28;45479;-54
2022/10/05 05:05:42;;;;;;;;;4.50;4.00;;;;;21.01;46.28;101295.06;5078683;27;45661;-56
2022/10/05 05:08:28;;;;;;;;;4.50;3.00;;;;;21.01;46.11;101287.16;5079087;28;45318;-56
2022/10/05 05:11:12;;;;;;;;;4.50;3.00;;;;;21.01;46.55;101283.66;5079076;27;45376;-55
2022/10/05 05:13:47;;;;;;;;;3.00;3.00;;;;;21.00;46.50;101280.16;5079265;27;45467;-51
2022/10/05 05:16:53;;;;;;;;;4.00;4.00;;;;;21.00;46.47;101285.44;5078765;27;47166;-51
2022/10/05 05:19:36;;;;;;;;;5.25;4.00;;;;;21.00;46.62;101280.16;5056567;28;45920;-51
2022/10/05 05:22:26;;;;;;;;;2.75;2.75;;;;;20.99;46.27;101283.75;5079120;27;45401;-53
2022/10/05 05:25:27;;;;;;;;;3.00;3.00;;;;;20.99;46.20;101273.22;5079154;28;45334;-57
2022/10/05 05:27:55;;;;;;;;;4.00;2.25;;;;;20.99;46.50;101277.63;5016110;28;47597;-56
2022/10/05 05:30:25;;;;;;;;;2.75;2.75;;;;;20.99;46.15;101280.25;5066396;27;45825;-51
2022/10/05 05:33:18;;;;;;;;;3.00;3.00;;;;;20.99;46.19;101278.50;5078592;27;45457;-49
2022/10/05 05:36:06;;;;;;;;;4.00;4.00;;;;;20.99;46.68;101270.59;5078954;27;45282;-49
2022/10/05 05:38:38;;;;;;;;;4.00;4.00;;;;;20.96;45.99;101265.47;5078162;27;46861;-52
2022/10/05 05:41:45;;;;;;;;;3.00;3.00;;;;;20.97;46.33;101272.44;5078572;27;45969;-51
2022/10/05 05:44:28;;;;;;;;;5.00;3.75;;;;;20.96;46.42;101265.47;5015933;28;45539;-55
2022/10/05 05:47:00;;;;;;;;;3.75;3.75;;;;;20.97;46.37;101263.66;5075117;27;45371;-49
2022/10/05 05:49:59;;;;;;;;;6.25;4.25;;;;;20.96;46.14;101270.72;5078043;27;45320;-50
2022/10/05 05:52:33;;;;;;;;;5.00;3.50;;;;;20.93;46.26;101270.88;5078102;27;45222;-48
2022/10/05 05:55:06;;;;;;;;;4.00;4.00;;;;;20.92;46.49;101263.91;5078485;28;45249;-49
2022/10/05 05:57:42;;;;;;;;;5.00;4.00;;;;;20.91;46.31;101267.47;5078275;28;45215;-53
2022/10/05 06:00:13;;;;;;;;;1.00;1.00;;;;;20.90;46.35;101263.13;5078687;27;46563;-55
2022/10/05 06:03:02;;;;;;;;;4.00;2.50;;;;;20.89;46.21;101274.59;5078176;27;45976;-51
2022/10/05 06:05:33;;;;;;;;;6.00;4.00;;;;;20.88;46.26;101278.16;5077834;27;45194;-51
2022/10/05 06:08:15;;;;;;;;;4.00;4.00;;;;;20.87;46.52;101273.84;5078347;27;45415;-53
2022/10/05 06:10:54;;;;;;;;;4.00;4.00;;;;;20.87;46.48;101276.47;5076319;28;47477;-50
2022/10/05 06:13:42;;;;;;;;;5.00;4.00;;;;;20.86;46.28;101269.50;5076224;28;46005;-50
2022/10/05 06:16:20;;;;;;;;;4.00;4.00;;;;;20.84;46.50;101263.44;5078332;27;45259;-46
2022/10/05 06:18:53;;;;;;;;;5.00;4.00;;;;;20.84;46.34;101266.06;5077087;27;45371;-52
2022/10/05 06:21:44;;;;;;;;;4.75;3.75;;;;;20.85;46.77;101271.25;5077689;27;45544;-50
2022/10/05 06:24:19;;;;;;;;;3.50;3.50;;;;;20.85;46.61;101262.50;5076164;27;45819;-48
2022/10/05 06:26:57;;;;;;;;;3.00;3.00;;;;;20.83;46.58;101265.22;5077869;27;45385;-48
2022/10/05 06:29:29;;;;;;;;;3.50;3.00;;;;;20.83;46.25;101267.88;5077814;27;45466;-50
2022/10/05 06:32:30;;;;;;;;;4.00;4.00;;;;;20.82;46.29;101265.28;5077635;27;46719;-49
2022/10/05 06:35:07;;;;;;;;;4.00;4.00;;;;;20.82;46.42;101273.19;5074517;28;45892;-47
2022/10/05 06:37:54;;;;;;;;;4.00;4.00;;;;;20.82;46.70;101267.94;5078198;27;45317;-48
2022/10/05 06:40:27;;;;;;;;;4.00;4.00;;;;;20.82;45.99;101273.19;5077569;27;45457;-51
2022/10/05 06:43:08;;;;;;;;;4.50;3.50;;;;;20.81;46.16;101267.09;5077577;28;45864;-48
2022/10/05 06:45:34;;;;;;;;;5.00;5.00;;;;;20.82;46.12;101260.88;5077737;27;45920;-49
2022/10/05 06:48:17;;;;;;;;;3.67;3.00;;;;;20.82;46.29;101270.56;5077655;27;45272;-47
2022/10/05 06:50:49;;;;;;;;;6.00;3.00;;;;;20.82;46.44;101271.44;5076442;28;45283;-47
2022/10/05 06:53:29;;;;;;;;;3.25;3.25;;;;;20.81;46.58;101266.22;5077007;27;46410;-46
2022/10/05 06:55:57;;;;;;;;;4.00;3.75;;;;;20.81;46.03;101264.44;5077368;27;45358;-51
2022/10/05 06:58:35;;;;;;;;;3.25;3.25;;;;;20.81;46.13;101271.47;5075763;28;45947;-49
2022/10/05 07:01:35;;;;;;;;;3.25;2.75;;;;;20.82;46.36;101263.53;5077463;27;45409;-47
2022/10/05 07:04:06;;;;;;;;;4.00;4.00;;;;;20.82;46.29;101262.66;5077239;27;46359;-51
2022/10/05 07:06:55;;;;;;;;;4.00;4.00;;;;;20.81;46.22;101267.09;5076849;27;45321;-50
2022/10/05 07:09:33;;;;;;;;;4.00;4.00;;;;;20.82;46.51;101267.94;5077013;27;45393;-49
2022/10/05 07:12:01;;;;;;;;;4.25;4.25;;;;;20.81;46.19;101269.72;5077136;27;45404;-51
2022/10/05 07:14:41;;;;;;;;;5.00;3.50;;;;;20.81;46.17;101274.13;5076620;27;45449;-48
2022/10/05 07:17:38;;;;;;;;;4.00;4.00;;;;;20.79;46.33;101268.94;5076351;27;45830;-48
2022/10/05 07:20:28;;;;;;;;;4.25;4.00;;;;;20.80;45.97;101273.28;5077337;27;45446;-52
2022/10/05 07:23:28;;;;;;;;;5.25;5.00;;;;;20.81;46.04;101287.28;5075728;28;45564;-52
2022/10/05 07:26:07;;;;;;;;;5.00;5.00;;;;;20.81;46.43;101282.03;5076799;27;46343;-50
2022/10/05 07:28:38;;;;;;;;;5.50;4.00;;;;;20.81;46.37;101288.16;5077319;28;45270;-51
2022/10/05 07:31:28;;;;;;;;;5.50;3.75;;;;;20.80;46.36;101286.44;5077216;27;45315;-52
2022/10/05 07:34:14;;;;;;;;;5.00;3.75;;;;;20.81;46.22;101287.28;5077142;27;45279;-50
2022/10/05 07:39:44;;;;;;;;;4.00;4.00;;;;;20.81;46.11;101297.81;5075657;28;45879;-53
2022/10/05 07:42:49;;;;;;;;;5.75;4.00;;;;;20.82;45.91;101294.25;5076258;27;45235;-54
2022/10/05 07:45:27;;;;;;;;;6.00;5.00;;;;;20.82;46.24;101294.25;5076640;27;45317;-55
2022/10/05 07:47:58;;;;;;;;;4.00;4.00;;;;;20.83;46.45;101295.97;5076391;27;47323;-44
2022/10/05 07:50:48;;;;;;;;;4.25;4.25;;;;;20.86;46.26;101301.09;5076201;27;45200;-50
2022/10/05 07:53:23;;;;;;;;;5.50;5.50;;;;;20.85;46.50;101300.22;5076318;27;45463;-45
2022/10/05 07:55:53;;;;;;;;;6.50;5.00;;;;;20.87;46.43;101304.56;5076767;27;45548;-55
2022/10/05 07:58:30;;;;;;;;;5.00;2.00;;;;;20.85;46.24;101302.88;5075954;27;46347;-47
2022/10/05 08:01:01;;;;;;;;;4.25;4.25;;;;;20.86;46.42;101303.75;5076407;27;45351;-51
2022/10/05 08:03:37;;;;;;;;;5.50;4.25;;;;;20.84;46.24;101302.94;5076221;27;45469;-48
2022/10/05 08:06:05;;;;;;;;;6.00;4.75;;;;;20.89;46.27;101308.00;5076610;27;45662;-46
2022/10/05 08:08:44;;;;;;;;;4.00;4.00;;;;;20.88;46.59;101303.66;5076055;27;46432;-48
2022/10/05 08:11:17;;;;;;;;;3.50;3.50;;;;;20.90;46.44;101302.63;5075738;27;45732;-47
2022/10/05 08:13:54;;;;;;;;;5.25;3.25;;;;;20.94;46.61;101308.63;5076064;27;45422;-49
2022/10/05 08:16:24;;;;;;;;;6.00;4.00;;;;;20.94;46.71;101304.19;5076130;27;45454;-52
2022/10/05 08:18:59;;;;;;;;;7.00;5.75;;;;;20.95;46.65;101298.00;5075873;27;45390;-52
2022/10/05 08:21:38;;;;;;;;;5.00;4.75;;;;;20.97;46.60;101304.06;5075826;27;45318;-52
2022/10/05 08:24:29;;;;;;;;;4.25;4.00;;;;;20.99;46.71;101302.22;5076568;27;45421;-51
2022/10/05 08:27:08;;;;;;;;;3.50;3.50;;;;;21.00;46.53;101308.31;5076259;27;45289;-52
2022/10/05 08:30:10;;;;;;;;;4.75;4.00;;;;;21.01;46.45;101302.97;5062208;28;46997;-47
2022/10/05 08:32:45;;;;;;;;;2.25;2.25;;;;;21.01;46.65;101313.50;5077091;27;45738;-48
2022/10/05 08:35:29;;;;;;;;;3.75;3.75;;;;;21.03;46.65;101312.56;5079392;27;45209;-57
2022/10/05 08:37:56;;;;;;;;;5.00;5.00;;;;;21.05;46.89;101313.34;5079612;27;45356;-49
2022/10/05 08:41:06;;;;;;;;;4.25;4.25;;;;;21.05;46.70;101308.09;5077524;27;46553;-51
2022/10/05 08:43:59;;;;;;;;;5.00;3.00;;;;;21.05;46.66;101316.00;5077735;27;45265;-56
2022/10/05 08:46:40;;;;;;;;;5.50;5.00;;;;;21.05;46.69;101310.72;5078932;28;45389;-48
2022/10/05 08:49:40;;;;;;;;;4.75;3.75;;;;;21.05;46.41;101313.34;5079816;27;45331;-46
2022/10/05 08:52:21;;;;;;;;;4.00;3.00;;;;;21.05;46.64;101313.34;5078086;28;46645;-45
2022/10/05 08:55:08;;;;;;;;;4.00;4.00;;;;;21.06;46.95;101322.97;5078636;27;45347;-44
2022/10/05 08:57:45;;;;;;;;;3.75;3.50;;;;;21.06;46.83;101320.34;5079448;28;45375;-43
2022/10/05 09:00:11;;;;;;;;;4.00;4.00;;;;;21.06;46.83;101317.69;5079240;27;45350;-45
2022/10/05 09:02:39;;;;;;;;;3.00;3.00;;;;;21.06;46.75;101322.97;5078926;27;45522;-43
2022/10/05 09:05:49;;;;;;;;;5.00;3.75;;;;;21.03;46.94;101329.25;5079085;28;45871;-48
2022/10/05 09:08:21;;;;;;;;;5.75;3.25;;;;;21.06;47.12;101333.50;5062865;27;45435;-48
2022/10/05 09:10:58;;;;;;;;;5.00;4.00;;;;;21.05;46.91;101322.13;5078888;27;45284;-49
2022/10/05 09:13:54;;;;;;;;;4.00;4.00;;;;;21.08;46.98;101321.13;5078060;27;45605;-48
2022/10/05 09:16:41;;;;;;;;;4.75;4.50;;;;;21.05;46.92;101316.00;5077004;28;45445;-46
2022/10/05 09:19:24;;;;;;;;;3.25;3.00;;;;;21.07;47.21;101324.69;5077787;27;45324;-46
2022/10/05 09:22:29;;;;;;;;;3.75;3.75;;;;;21.09;47.13;101328.09;5078776;28;45467;-43
2022/10/05 09:24:56;;;;;;;;;3.00;3.00;;;;;21.08;47.17;101326.38;5049773;27;45552;-44
2022/10/05 09:27:34;;;;;;;;;4.00;2.00;;;;;21.08;47.23;101331.66;5078252;27;45880;-48
2022/10/05 09:30:29;;;;;;;;;5.75;4.00;;;;;21.06;47.32;101326.44;5078725;28;45409;-45
2022/10/05 09:33:15;;;;;;;;;4.00;4.00;;;;;21.11;46.88;101334.16;5077013;27;45207;-48
2022/10/05 09:36:16;;;;;;;;;6.00;4.00;;;;;21.11;47.40;101332.34;5077311;27;45580;-43
2022/10/05 09:38:56;;;;;;;;;3.50;3.50;;;;;21.13;47.57;101332.25;5078524;27;45795;-43
2022/10/05 09:41:43;;;;;;;;;3.50;3.00;;;;;21.13;47.03;101333.13;5077733;27;45433;-45
2022/10/05 09:44:27;;;;;;;;;3.50;3.50;;;;;21.14;47.23;101336.59;5077088;28;45430;-50
2022/10/05 09:47:05;;;;;;;;;4.25;3.00;;;;;21.15;47.17;101343.59;5077606;28;46227;-44
2022/10/05 09:49:45;;;;;;;;;6.00;4.00;;;;;21.14;47.45;101342.75;5077871;28;45944;-45
2022/10/05 09:52:35;;;;;;;;;2.75;2.50;;;;;21.15;47.59;101333.03;5078033;27;45477;-52
2022/10/05 09:55:38;;;;;;;;;3.50;3.00;;;;;21.17;47.09;101333.81;5077827;27;45322;-51
2022/10/05 09:58:23;;;;;;;;;3.25;3.25;;;;;21.18;47.34;101332.91;5077987;27;45511;-43
2022/10/05 10:01:26;;;;;;;;;4.75;3.25;;;;;21.15;47.39;101323.38;5077954;27;45928;-51
2022/10/05 10:03:51;;;;;;;;;4.75;3.25;;;;;21.17;47.30;101329.41;5077930;28;45334;-46
2022/10/05 10:06:42;;;;;;;;;3.00;3.00;;;;;21.18;47.17;101332.91;5077646;27;45594;-50
2022/10/05 10:09:46;;;;;;;;;3.00;3.00;;;;;21.19;47.33;101337.25;5078020;27;46559;-47
2022/10/05 10:12:35;;;;;;;;;2.75;2.75;;;;;21.19;47.50;101345.16;5061625;27;45712;-42
2022/10/05 10:15:15;;;;;;;;;3.75;3.25;;;;;21.20;47.14;101331.03;5077995;27;45307;-41
2022/10/05 10:17:54;;;;;;;;;3.75;3.75;;;;;21.22;47.23;101330.97;5077754;27;45484;-48
2022/10/05 10:20:51;;;;;;;;;4.00;4.00;;;;;21.23;47.42;101325.59;5077628;27;45280;-42
2022/10/05 10:23:31;;;;;;;;;3.75;3.75;;;;;21.23;47.65;101319.50;5077399;28;45343;-51
2022/10/05 10:26:23;;;;;;;;;5.50;3.75;;;;;21.24;47.30;101319.41;5077400;27;45366;-47
2022/10/05 10:29:19;;;;;;;;;6.25;3.75;;;;;21.24;47.31;101313.28;5077049;28;46491;-54
2022/10/05 10:32:18;;;;;;;;;3.75;3.75;;;;;21.26;47.29;101317.53;5077474;28;45457;-47
2022/10/05 10:34:52;;;;;;;;;4.75;3.00;;;;;21.29;47.18;101327.06;5075662;27;45371;-47
2022/10/05 10:37:39;;;;;;;;;4.75;4.00;;;;;21.28;47.32;101318.31;5076829;27;45345;-48
2022/10/05 10:40:34;;;;;;;;;5.00;5.00;;;;;21.27;47.09;101316.63;5078102;28;45514;-46
2022/10/05 10:43:21;;;;;;;;;5.00;3.50;;;;;21.30;47.15;101318.22;5077260;28;46817;-51
2022/10/05 10:46:34;;;;;;;;;3.25;3.00;;;;;21.29;46.89;101322.66;5075878;28;45810;-48
2022/10/05 10:49:34;;;;;;;;;5.00;3.50;;;;;21.29;47.38;101320.03;5077390;28;45334;-56
2022/10/05 10:52:06;;;;;;;;;4.00;4.00;;;;;21.28;46.85;101305.13;5013845;28;45601;-56
2022/10/05 10:54:31;;;;;;;;;5.00;3.25;;;;;21.28;47.28;101310.41;5066548;27;45465;-56
2022/10/05 10:57:10;;;;;;;;;3.33;3.33;;;;;21.28;47.21;101307.78;5076883;28;45422;-57
2022/10/05 11:00:04;;;;;;;;;4.25;4.25;;;;;21.28;46.76;101296.38;5077479;27;45314;-57
2022/10/05 11:03:07;;;;;;;;;3.00;2.75;;;;;21.28;46.72;101299.88;5077244;28;45315;-57
2022/10/05 11:05:50;;;;;;;;;3.00;3.00;;;;;21.27;47.26;101299.97;5077088;28;45567;-57
2022/10/05 11:08:45;;;;;;;;;3.75;3.75;;;;;21.27;46.98;101292.06;5075420;28;45252;-57
2022/10/05 11:12:06;;;;;;;;;3.00;3.00;;;;;21.25;46.87;101280.72;5047769;27;45500;-56
2022/10/05 11:14:34;;;;;;;;;3.25;3.25;;;;;21.26;47.02;101275.38;5014455;28;45378;-56
2022/10/05 11:17:14;;;;;;;;;3.25;3.25;;;;;21.26;46.74;101277.16;5014387;28;45421;-57
2022/10/05 11:19:58;;;;;;;;;3.50;3.50;;;;;21.25;47.11;101271.00;5050379;27;45405;-56
2022/10/05 11:22:51;;;;;;;;;3.00;3.00;;;;;21.27;47.16;101274.44;5076884;27;45424;-58
2022/10/05 11:25:34;;;;;;;;;5.00;3.00;;;;;21.26;46.98;101266.63;5075347;27;45635;-56
2022/10/05 11:28:23;;;;;;;;;3.00;3.00;;;;;21.26;47.04;101267.44;5076682;27;46054;-56
2022/10/05 11:30:55;;;;;;;;;4.00;4.00;;;;;21.25;47.00;101255.19;5076731;27;45909;-56
2022/10/05 11:33:42;;;;;;;;;3.00;3.00;;;;;21.25;46.94;101249.94;5076557;27;45241;-57
2022/10/05 11:36:16;;;;;;;;;4.50;3.00;;;;;21.26;46.96;101241.09;5077117;27;45335;-57
2022/10/05 11:39:15;;;;;;;;;5.75;3.25;;;;;21.27;46.86;101252.50;5076615;28;46429;-56
2022/10/05 11:41:52;;;;;;;;;2.75;2.75;;;;;21.28;47.06;101259.44;5075021;28;45382;-56
2022/10/05 11:44:29;;;;;;;;;4.00;3.00;;;;;21.27;47.03;101261.25;5074573;27;45405;-55
2022/10/05 11:47:10;;;;;;;;;3.00;3.00;;;;;21.24;46.87;101265.84;5075986;27;45355;-53
2022/10/05 11:49:52;;;;;;;;;3.50;3.50;;;;;21.27;46.83;101263.06;5075317;27;45437;-53
2022/10/05 11:52:17;;;;;;;;;4.00;3.00;;;;;21.28;46.94;101265.59;5075202;27;45319;-55
2022/10/05 11:55:01;;;;;;;;;3.75;2.75;;;;;21.28;46.92;101251.53;5074250;27;45821;-56
2022/10/05 11:57:27;;;;;;;;;3.25;3.00;;;;;21.27;47.08;101255.97;5075514;28;45485;-54
2022/10/05 12:00:08;;;;;;;;;3.00;3.00;;;;;21.27;46.73;101255.13;5074041;27;47367;-51
2022/10/05 12:02:45;;;;;;;;;3.50;2.75;;;;;21.29;46.62;101246.22;5075087;27;46176;-54
2022/10/05 12:05:26;;;;;;;;;4.00;4.00;;;;;21.28;47.04;101239.22;5074058;27;45589;-53
2022/10/05 12:08:00;;;;;;;;;3.00;3.00;;;;;21.28;46.82;101247.13;5074875;27;45497;-52
2022/10/05 12:10:56;;;;;;;;;2.25;2.25;;;;;21.28;46.77;101241.88;5072648;27;46673;-51
2022/10/05 12:13:32;;;;;;;;;1.00;1.00;;;;;21.29;46.91;101240.06;5073897;28;45262;-52
2022/10/05 12:16:07;;;;;;;;;3.00;3.00;;;;;21.28;46.79;101239.22;5074431;27;45337;-51
2022/10/05 12:18:32;;;;;;;;;3.00;3.00;;;;;21.29;46.96;101253.25;5074402;27;45407;-55
2022/10/05 12:20:58;;;;;;;;;4.00;3.00;;;;;21.29;46.89;101245.34;5074220;27;45564;-54
2022/10/05 12:23:23;;;;;;;;;6.50;3.25;;;;;21.29;47.00;101237.44;5072610;28;45426;-57
2022/10/05 12:26:00;;;;;;;;;3.00;3.00;;;;;21.29;47.28;101246.22;5074105;27;45689;-55
2022/10/05 12:28:41;;;;;;;;;3.00;3.00;;;;;21.28;47.12;101227.81;5074063;27;45269;-55
2022/10/05 12:31:34;;;;;;;;;4.00;3.00;;;;;21.30;47.42;101242.66;5074379;27;47311;-55
2022/10/05 12:34:02;;;;;;;;;3.50;3.00;;;;;21.30;47.38;101247.91;5067746;28;45483;-52